sensor_id;sensor_type;location;lat;lon;timestamp;temperature;humidity
49222;DHT22;35047;37.588;-122.048;2023-02-01T00:00:27;16.70;35.20
49222;DHT22;35047;37.588;-122.048;2023-02-01T00:02:54;16.80;35.70
49222;DHT22;35047;37.588;-122.048;2023-02-01T00:05:21;16.80;35.90
49222;DHT22;35047;37.588;-122.048;2023-02-01T00:07:48;16.50;35.30
49222;DHT22;35047;37.588;-122.048;2023-02-01T00:10:15;16.20;36.20
49222;DHT22;35047;37.588;-122.048;2023-02-01T00:12:43;16.20;36.40
49222;DHT22;35047;37.588;-122.048;2023-02-01T00:15:10;16.10;35.30
49222;DHT22;35047;37.588;-122.048;2023-02-01T00:17:36;15.90;34.90
49222;DHT22;35047;37.588;-122.048;2023-02-01T00:20:04;15.90;35.10
49222;DHT22;35047;37.588;-122.048;2023-02-01T00:22:31;15.80;35.40
49222;DHT22;35047;37.588;-122.048;2023-02-01T00:24:58;16.00;36.60
49222;DHT22;35047;37.588;-122.048;2023-02-01T00:27:39;15.70;36.60
49222;DHT22;35047;37.588;-122.048;2023-02-01T00:30:11;15.60;37.70
49222;DHT22;35047;37.588;-122.048;2023-02-01T00:32:38;15.30;37.80
49222;DHT22;35047;37.588;-122.048;2023-02-01T00:35:05;15.40;38.40
49222;DHT22;35047;37.588;-122.048;2023-02-01T00:37:34;15.20;37.40
49222;DHT22;35047;37.588;-122.048;2023-02-01T00:40:00;15.10;37.10
49222;DHT22;35047;37.588;-122.048;2023-02-01T00:42:27;15.00;37.20
49222;DHT22;35047;37.588;-122.048;2023-02-01T00:44:54;15.10;37.10
49222;DHT22;35047;37.588;-122.048;2023-02-01T00:47:21;14.80;37.70
49222;DHT22;35047;37.588;-122.048;2023-02-01T00:49:49;14.80;36.60
49222;DHT22;35047;37.588;-122.048;2023-02-01T00:52:17;14.90;35.40
49222;DHT22;35047;37.588;-122.048;2023-02-01T00:54:44;14.80;35.60
49222;DHT22;35047;37.588;-122.048;2023-02-01T00:57:11;14.90;35.70
49222;DHT22;35047;37.588;-122.048;2023-02-01T00:59:38;14.90;34.90
49222;DHT22;35047;37.588;-122.048;2023-02-01T01:02:05;14.80;35.30
49222;DHT22;35047;37.588;-122.048;2023-02-01T01:04:32;14.60;35.10
49222;DHT22;35047;37.588;-122.048;2023-02-01T01:06:59;14.60;35.60
49222;DHT22;35047;37.588;-122.048;2023-02-01T01:09:25;14.40;35.30
49222;DHT22;35047;37.588;-122.048;2023-02-01T01:11:52;14.50;38.00
49222;DHT22;35047;37.588;-122.048;2023-02-01T01:14:19;14.50;38.50
49222;DHT22;35047;37.588;-122.048;2023-02-01T01:16:46;14.50;38.40
49222;DHT22;35047;37.588;-122.048;2023-02-01T01:19:13;14.30;38.10
49222;DHT22;35047;37.588;-122.048;2023-02-01T01:21:40;14.10;39.00
49222;DHT22;35047;37.588;-122.048;2023-02-01T01:24:07;14.00;41.30
49222;DHT22;35047;37.588;-122.048;2023-02-01T01:26:34;14.00;42.50
49222;DHT22;35047;37.588;-122.048;2023-02-01T01:29:01;13.90;41.80
49222;DHT22;35047;37.588;-122.048;2023-02-01T01:31:28;14.00;44.20
49222;DHT22;35047;37.588;-122.048;2023-02-01T01:33:57;13.90;42.60
49222;DHT22;35047;37.588;-122.048;2023-02-01T01:36:25;13.70;43.50
49222;DHT22;35047;37.588;-122.048;2023-02-01T01:38:53;13.50;45.60
49222;DHT22;35047;37.588;-122.048;2023-02-01T01:41:23;13.70;46.40
49222;DHT22;35047;37.588;-122.048;2023-02-01T01:43:59;13.60;46.30
49222;DHT22;35047;37.588;-122.048;2023-02-01T01:46:44;14.10;47.20
49222;DHT22;35047;37.588;-122.048;2023-02-01T01:49:12;14.90;46.00
49222;DHT22;35047;37.588;-122.048;2023-02-01T01:51:54;15.30;45.60
49222;DHT22;35047;37.588;-122.048;2023-02-01T01:54:37;15.30;44.90
49222;DHT22;35047;37.588;-122.048;2023-02-01T01:57:11;15.70;44.30
49222;DHT22;35047;37.588;-122.048;2023-02-01T01:59:39;15.20;44.30
49222;DHT22;35047;37.588;-122.048;2023-02-01T02:02:08;15.70;44.80
49222;DHT22;35047;37.588;-122.048;2023-02-01T02:04:36;15.90;44.60
49222;DHT22;35047;37.588;-122.048;2023-02-01T02:07:10;16.10;43.90
49222;DHT22;35047;37.588;-122.048;2023-02-01T02:09:37;16.10;43.70
49222;DHT22;35047;37.588;-122.048;2023-02-01T02:12:05;15.40;43.00
49222;DHT22;35047;37.588;-122.048;2023-02-01T02:14:32;15.40;44.40
49222;DHT22;35047;37.588;-122.048;2023-02-01T02:17:16;14.40;41.80
49222;DHT22;35047;37.588;-122.048;2023-02-01T02:36:28;13.30;50.90
49222;DHT22;35047;37.588;-122.048;2023-02-01T02:39:22;13.90;49.70
49222;DHT22;35047;37.588;-122.048;2023-02-01T02:44:56;14.60;48.20
49222;DHT22;35047;37.588;-122.048;2023-02-01T02:50:37;13.90;47.90
49222;DHT22;35047;37.588;-122.048;2023-02-01T02:53:35;13.60;50.10
49222;DHT22;35047;37.588;-122.048;2023-02-01T02:56:25;14.30;48.40
49222;DHT22;35047;37.588;-122.048;2023-02-01T02:59:16;14.60;48.30
49222;DHT22;35047;37.588;-122.048;2023-02-01T03:02:02;13.60;47.00
49222;DHT22;35047;37.588;-122.048;2023-02-01T03:04:53;12.40;50.20
49222;DHT22;35047;37.588;-122.048;2023-02-01T03:12:50;11.30;53.40
49222;DHT22;35047;37.588;-122.048;2023-02-01T03:15:36;11.50;56.30
49222;DHT22;35047;37.588;-122.048;2023-02-01T03:18:11;12.10;55.40
49222;DHT22;35047;37.588;-122.048;2023-02-01T03:20:42;11.80;55.40
49222;DHT22;35047;37.588;-122.048;2023-02-01T03:23:13;11.70;52.80
49222;DHT22;35047;37.588;-122.048;2023-02-01T03:25:43;12.30;53.00
49222;DHT22;35047;37.588;-122.048;2023-02-01T03:28:10;12.50;53.90
49222;DHT22;35047;37.588;-122.048;2023-02-01T03:30:41;12.30;53.80
49222;DHT22;35047;37.588;-122.048;2023-02-01T03:33:28;11.60;52.90
49222;DHT22;35047;37.588;-122.048;2023-02-01T03:41:51;10.60;56.90
49222;DHT22;35047;37.588;-122.048;2023-02-01T03:44:26;10.30;58.10
49222;DHT22;35047;37.588;-122.048;2023-02-01T03:47:33;10.00;59.10
49222;DHT22;35047;37.588;-122.048;2023-02-01T03:50:05;10.40;60.90
49222;DHT22;35047;37.588;-122.048;2023-02-01T03:52:48;11.30;59.30
49222;DHT22;35047;37.588;-122.048;2023-02-01T03:55:21;12.00;55.40
49222;DHT22;35047;37.588;-122.048;2023-02-01T03:58:06;11.60;56.00
49222;DHT22;35047;37.588;-122.048;2023-02-01T04:00:33;11.70;57.30
49222;DHT22;35047;37.588;-122.048;2023-02-01T04:03:01;12.30;55.40
49222;DHT22;35047;37.588;-122.048;2023-02-01T04:05:29;12.50;56.00
49222;DHT22;35047;37.588;-122.048;2023-02-01T04:07:57;12.80;54.90
49222;DHT22;35047;37.588;-122.048;2023-02-01T04:10:25;12.70;53.70
49222;DHT22;35047;37.588;-122.048;2023-02-01T04:12:51;12.30;55.00
49222;DHT22;35047;37.588;-122.048;2023-02-01T04:15:18;12.00;55.60
49222;DHT22;35047;37.588;-122.048;2023-02-01T04:17:45;11.50;55.90
49222;DHT22;35047;37.588;-122.048;2023-02-01T04:20:13;11.80;56.80
49222;DHT22;35047;37.588;-122.048;2023-02-01T04:22:39;12.20;56.60
49222;DHT22;35047;37.588;-122.048;2023-02-01T04:25:07;12.80;55.60
49222;DHT22;35047;37.588;-122.048;2023-02-01T04:27:34;13.10;54.50
49222;DHT22;35047;37.588;-122.048;2023-02-01T04:30:02;13.20;54.30
49222;DHT22;35047;37.588;-122.048;2023-02-01T04:32:30;13.60;53.80
49222;DHT22;35047;37.588;-122.048;2023-02-01T04:34:57;13.80;53.20
49222;DHT22;35047;37.588;-122.048;2023-02-01T04:37:24;14.00;52.60
49222;DHT22;35047;37.588;-122.048;2023-02-01T04:39:51;14.10;52.20
49222;DHT22;35047;37.588;-122.048;2023-02-01T04:42:20;14.20;52.10
49222;DHT22;35047;37.588;-122.048;2023-02-01T04:44:47;14.30;52.10
49222;DHT22;35047;37.588;-122.048;2023-02-01T04:47:14;14.30;52.00
49222;DHT22;35047;37.588;-122.048;2023-02-01T04:49:41;14.20;52.20
49222;DHT22;35047;37.588;-122.048;2023-02-01T04:52:09;14.40;52.10
49222;DHT22;35047;37.588;-122.048;2023-02-01T04:54:39;14.40;51.90
49222;DHT22;35047;37.588;-122.048;2023-02-01T04:57:07;14.50;51.80
49222;DHT22;35047;37.588;-122.048;2023-02-01T04:59:34;14.40;52.10
49222;DHT22;35047;37.588;-122.048;2023-02-01T05:02:01;14.40;52.10
49222;DHT22;35047;37.588;-122.048;2023-02-01T05:04:28;14.50;51.90
49222;DHT22;35047;37.588;-122.048;2023-02-01T05:06:56;14.50;51.60
49222;DHT22;35047;37.588;-122.048;2023-02-01T05:09:23;14.50;51.50
49222;DHT22;35047;37.588;-122.048;2023-02-01T05:11:50;14.50;51.40
49222;DHT22;35047;37.588;-122.048;2023-02-01T05:14:35;14.50;51.50
49222;DHT22;35047;37.588;-122.048;2023-02-01T05:17:03;14.40;51.40
49222;DHT22;35047;37.588;-122.048;2023-02-01T05:19:31;14.40;51.30
49222;DHT22;35047;37.588;-122.048;2023-02-01T05:21:57;14.40;51.20
49222;DHT22;35047;37.588;-122.048;2023-02-01T05:24:25;14.30;51.30
49222;DHT22;35047;37.588;-122.048;2023-02-01T05:26:53;14.40;51.40
49222;DHT22;35047;37.588;-122.048;2023-02-01T05:29:20;14.40;51.20
49222;DHT22;35047;37.588;-122.048;2023-02-01T05:31:48;14.40;51.20
49222;DHT22;35047;37.588;-122.048;2023-02-01T05:34:15;14.40;51.30
49222;DHT22;35047;37.588;-122.048;2023-02-01T05:36:43;14.40;51.00
49222;DHT22;35047;37.588;-122.048;2023-02-01T05:39:10;14.40;50.80
49222;DHT22;35047;37.588;-122.048;2023-02-01T05:41:37;14.30;50.50
49222;DHT22;35047;37.588;-122.048;2023-02-01T05:44:04;14.30;50.30
49222;DHT22;35047;37.588;-122.048;2023-02-01T05:46:34;14.40;50.30
49222;DHT22;35047;37.588;-122.048;2023-02-01T05:49:00;14.30;50.20
49222;DHT22;35047;37.588;-122.048;2023-02-01T05:51:27;14.30;50.40
49222;DHT22;35047;37.588;-122.048;2023-02-01T05:53:54;14.30;50.20
49222;DHT22;35047;37.588;-122.048;2023-02-01T05:56:20;14.30;50.30
49222;DHT22;35047;37.588;-122.048;2023-02-01T05:58:48;14.30;51.20
49222;DHT22;35047;37.588;-122.048;2023-02-01T06:01:14;14.20;50.80
49222;DHT22;35047;37.588;-122.048;2023-02-01T06:03:41;14.20;50.80
49222;DHT22;35047;37.588;-122.048;2023-02-01T06:06:09;14.10;51.00
49222;DHT22;35047;37.588;-122.048;2023-02-01T06:08:36;14.10;51.00
49222;DHT22;35047;37.588;-122.048;2023-02-01T06:11:06;14.10;51.20
49222;DHT22;35047;37.588;-122.048;2023-02-01T06:13:34;14.10;51.30
49222;DHT22;35047;37.588;-122.048;2023-02-01T06:16:02;14.00;51.40
49222;DHT22;35047;37.588;-122.048;2023-02-01T06:18:29;14.00;51.50
49222;DHT22;35047;37.588;-122.048;2023-02-01T06:20:56;13.90;52.20
49222;DHT22;35047;37.588;-122.048;2023-02-01T06:23:26;13.60;52.90
49222;DHT22;35047;37.588;-122.048;2023-02-01T06:26:00;13.70;53.50
49222;DHT22;35047;37.588;-122.048;2023-02-01T06:28:28;13.80;53.20
49222;DHT22;35047;37.588;-122.048;2023-02-01T06:30:55;13.80;52.80
49222;DHT22;35047;37.588;-122.048;2023-02-01T06:33:25;13.90;52.60
49222;DHT22;35047;37.588;-122.048;2023-02-01T06:36:00;13.70;52.70
49222;DHT22;35047;37.588;-122.048;2023-02-01T06:38:29;13.70;52.70
49222;DHT22;35047;37.588;-122.048;2023-02-01T06:40:58;13.60;53.00
49222;DHT22;35047;37.588;-122.048;2023-02-01T06:43:26;13.70;53.00
49222;DHT22;35047;37.588;-122.048;2023-02-01T06:45:58;13.80;53.00
49222;DHT22;35047;37.588;-122.048;2023-02-01T06:48:26;13.70;53.00
49222;DHT22;35047;37.588;-122.048;2023-02-01T06:50:53;13.70;53.00
49222;DHT22;35047;37.588;-122.048;2023-02-01T06:53:20;13.70;52.90
49222;DHT22;35047;37.588;-122.048;2023-02-01T06:55:59;13.70;52.80
49222;DHT22;35047;37.588;-122.048;2023-02-01T06:58:33;13.70;52.70
49222;DHT22;35047;37.588;-122.048;2023-02-01T07:01:08;13.70;52.60
49222;DHT22;35047;37.588;-122.048;2023-02-01T07:03:35;13.70;52.50
49222;DHT22;35047;37.588;-122.048;2023-02-01T07:06:02;13.70;52.40
49222;DHT22;35047;37.588;-122.048;2023-02-01T07:08:32;13.70;52.30
49222;DHT22;35047;37.588;-122.048;2023-02-01T07:11:04;13.70;52.40
49222;DHT22;35047;37.588;-122.048;2023-02-01T07:13:31;13.60;52.20
49222;DHT22;35047;37.588;-122.048;2023-02-01T07:16:02;13.60;52.10
49222;DHT22;35047;37.588;-122.048;2023-02-01T07:18:31;13.60;52.20
49222;DHT22;35047;37.588;-122.048;2023-02-01T07:20:59;13.60;52.20
49222;DHT22;35047;37.588;-122.048;2023-02-01T07:23:26;13.60;52.10
49222;DHT22;35047;37.588;-122.048;2023-02-01T07:25:59;13.60;52.20
49222;DHT22;35047;37.588;-122.048;2023-02-01T07:28:27;13.50;53.00
49222;DHT22;35047;37.588;-122.048;2023-02-01T07:30:54;13.50;52.60
49222;DHT22;35047;37.588;-122.048;2023-02-01T07:33:23;13.50;53.00
49222;DHT22;35047;37.588;-122.048;2023-02-01T07:35:51;13.50;53.30
49222;DHT22;35047;37.588;-122.048;2023-02-01T07:38:18;13.40;53.40
49222;DHT22;35047;37.588;-122.048;2023-02-01T07:40:47;13.40;53.20
49222;DHT22;35047;37.588;-122.048;2023-02-01T07:43:14;13.50;53.20
49222;DHT22;35047;37.588;-122.048;2023-02-01T07:45:41;13.50;53.20
49222;DHT22;35047;37.588;-122.048;2023-02-01T07:48:08;13.50;53.00
49222;DHT22;35047;37.588;-122.048;2023-02-01T07:50:34;13.50;52.90
49222;DHT22;35047;37.588;-122.048;2023-02-01T07:53:01;13.40;52.90
49222;DHT22;35047;37.588;-122.048;2023-02-01T07:55:29;13.50;53.20
49222;DHT22;35047;37.588;-122.048;2023-02-01T07:57:59;13.40;53.30
49222;DHT22;35047;37.588;-122.048;2023-02-01T08:00:26;13.40;53.40
49222;DHT22;35047;37.588;-122.048;2023-02-01T08:03:12;13.40;53.50
49222;DHT22;35047;37.588;-122.048;2023-02-01T08:05:38;13.30;53.60
49222;DHT22;35047;37.588;-122.048;2023-02-01T08:08:06;13.30;53.70
49222;DHT22;35047;37.588;-122.048;2023-02-01T08:10:34;13.20;53.60
49222;DHT22;35047;37.588;-122.048;2023-02-01T08:13:01;13.30;53.50
49222;DHT22;35047;37.588;-122.048;2023-02-01T08:15:30;13.30;53.40
49222;DHT22;35047;37.588;-122.048;2023-02-01T08:17:56;13.30;53.40
49222;DHT22;35047;37.588;-122.048;2023-02-01T08:20:24;13.20;53.30
49222;DHT22;35047;37.588;-122.048;2023-02-01T08:22:52;13.20;53.60
49222;DHT22;35047;37.588;-122.048;2023-02-01T08:25:20;13.10;53.60
49222;DHT22;35047;37.588;-122.048;2023-02-01T08:27:48;13.10;53.80
49222;DHT22;35047;37.588;-122.048;2023-02-01T08:30:15;12.90;54.10
49222;DHT22;35047;37.588;-122.048;2023-02-01T08:32:42;12.70;54.50
49222;DHT22;35047;37.588;-122.048;2023-02-01T08:35:10;12.50;54.80
49222;DHT22;35047;37.588;-122.048;2023-02-01T08:37:36;12.60;55.30
49222;DHT22;35047;37.588;-122.048;2023-02-01T08:40:04;12.70;55.10
49222;DHT22;35047;37.588;-122.048;2023-02-01T08:42:30;12.80;54.90
49222;DHT22;35047;37.588;-122.048;2023-02-01T08:45:24;12.60;55.00
49222;DHT22;35047;37.588;-122.048;2023-02-01T08:47:56;12.60;55.30
49222;DHT22;35047;37.588;-122.048;2023-02-01T08:50:23;12.70;55.20
49222;DHT22;35047;37.588;-122.048;2023-02-01T08:52:51;12.80;55.10
49222;DHT22;35047;37.588;-122.048;2023-02-01T08:55:17;12.80;55.00
49222;DHT22;35047;37.588;-122.048;2023-02-01T08:57:45;12.90;55.00
49222;DHT22;35047;37.588;-122.048;2023-02-01T09:00:13;12.90;54.80
49222;DHT22;35047;37.588;-122.048;2023-02-01T09:02:41;12.90;54.50
49222;DHT22;35047;37.588;-122.048;2023-02-01T09:05:08;12.90;54.50
49222;DHT22;35047;37.588;-122.048;2023-02-01T09:07:37;12.90;54.50
49222;DHT22;35047;37.588;-122.048;2023-02-01T09:10:04;12.90;54.40
49222;DHT22;35047;37.588;-122.048;2023-02-01T09:12:32;12.90;54.40
49222;DHT22;35047;37.588;-122.048;2023-02-01T09:14:59;12.80;54.30
49222;DHT22;35047;37.588;-122.048;2023-02-01T09:17:27;12.80;54.50
49222;DHT22;35047;37.588;-122.048;2023-02-01T09:19:54;12.80;54.60
49222;DHT22;35047;37.588;-122.048;2023-02-01T09:22:22;12.80;54.80
49222;DHT22;35047;37.588;-122.048;2023-02-01T09:24:49;12.70;54.80
49222;DHT22;35047;37.588;-122.048;2023-02-01T09:27:15;12.70;55.00
49222;DHT22;35047;37.588;-122.048;2023-02-01T09:29:43;12.70;55.00
49222;DHT22;35047;37.588;-122.048;2023-02-01T09:32:11;12.80;55.10
49222;DHT22;35047;37.588;-122.048;2023-02-01T09:34:38;12.70;55.10
49222;DHT22;35047;37.588;-122.048;2023-02-01T09:37:04;12.70;55.30
49222;DHT22;35047;37.588;-122.048;2023-02-01T09:39:32;12.60;55.30
49222;DHT22;35047;37.588;-122.048;2023-02-01T09:47:23;12.60;55.60
49222;DHT22;35047;37.588;-122.048;2023-02-01T09:50:02;12.60;56.40
49222;DHT22;35047;37.588;-122.048;2023-02-01T09:55:43;12.40;56.00
49222;DHT22;35047;37.588;-122.048;2023-02-01T09:58:21;12.40;56.20
49222;DHT22;35047;37.588;-122.048;2023-02-01T10:00:54;12.40;56.20
49222;DHT22;35047;37.588;-122.048;2023-02-01T10:03:26;12.40;56.10
49222;DHT22;35047;37.588;-122.048;2023-02-01T10:06:09;12.40;56.20
49222;DHT22;35047;37.588;-122.048;2023-02-01T10:14:34;12.30;56.10
49222;DHT22;35047;37.588;-122.048;2023-02-01T10:20:12;12.30;56.30
49222;DHT22;35047;37.588;-122.048;2023-02-01T10:22:59;12.30;56.30
49222;DHT22;35047;37.588;-122.048;2023-02-01T10:25:54;12.20;56.30
49222;DHT22;35047;37.588;-122.048;2023-02-01T10:28:24;12.20;56.30
49222;DHT22;35047;37.588;-122.048;2023-02-01T10:30:56;12.20;56.40
49222;DHT22;35047;37.588;-122.048;2023-02-01T10:33:34;12.20;56.40
49222;DHT22;35047;37.588;-122.048;2023-02-01T10:38:38;12.20;56.40
49222;DHT22;35047;37.588;-122.048;2023-02-01T10:41:14;12.10;56.40
49222;DHT22;35047;37.588;-122.048;2023-02-01T10:43:42;12.10;56.60
49222;DHT22;35047;37.588;-122.048;2023-02-01T10:46:10;12.10;56.70
49222;DHT22;35047;37.588;-122.048;2023-02-01T10:48:38;12.10;56.60
49222;DHT22;35047;37.588;-122.048;2023-02-01T10:53:58;12.10;57.00
49222;DHT22;35047;37.588;-122.048;2023-02-01T10:56:28;12.10;57.10
49222;DHT22;35047;37.588;-122.048;2023-02-01T10:59:02;12.10;57.20
49222;DHT22;35047;37.588;-122.048;2023-02-01T11:01:40;12.10;57.10
49222;DHT22;35047;37.588;-122.048;2023-02-01T11:04:11;12.20;57.00
49222;DHT22;35047;37.588;-122.048;2023-02-01T11:06:41;12.10;57.10
49222;DHT22;35047;37.588;-122.048;2023-02-01T11:14:17;12.10;57.00
49222;DHT22;35047;37.588;-122.048;2023-02-01T11:16:49;12.10;57.10
49222;DHT22;35047;37.588;-122.048;2023-02-01T11:19:17;12.00;57.00
49222;DHT22;35047;37.588;-122.048;2023-02-01T11:21:49;12.00;57.20
49222;DHT22;35047;37.588;-122.048;2023-02-01T11:24:35;12.00;57.80
49222;DHT22;35047;37.588;-122.048;2023-02-01T11:27:12;11.90;56.90
49222;DHT22;35047;37.588;-122.048;2023-02-01T11:29:42;11.70;57.40
49222;DHT22;35047;37.588;-122.048;2023-02-01T11:32:11;11.50;57.80
49222;DHT22;35047;37.588;-122.048;2023-02-01T11:34:52;11.30;58.40
49222;DHT22;35047;37.588;-122.048;2023-02-01T11:40:00;11.50;58.70
49222;DHT22;35047;37.588;-122.048;2023-02-01T11:42:28;11.50;58.50
49222;DHT22;35047;37.588;-122.048;2023-02-01T11:45:23;11.50;58.50
49222;DHT22;35047;37.588;-122.048;2023-02-01T11:47:54;11.60;58.30
49222;DHT22;35047;37.588;-122.048;2023-02-01T11:50:38;11.60;58.30
49222;DHT22;35047;37.588;-122.048;2023-02-01T12:22:49;11.40;57.70
49222;DHT22;35047;37.588;-122.048;2023-02-01T12:31:34;11.30;59.10
49222;DHT22;35047;37.588;-122.048;2023-02-01T12:39:40;11.40;58.30
49222;DHT22;35047;37.588;-122.048;2023-02-01T12:44:56;11.30;58.20
49222;DHT22;35047;37.588;-122.048;2023-02-01T12:47:54;11.30;58.10
49222;DHT22;35047;37.588;-122.048;2023-02-01T12:50:34;11.30;58.10
49222;DHT22;35047;37.588;-122.048;2023-02-01T12:53:15;11.20;58.30
49222;DHT22;35047;37.588;-122.048;2023-02-01T12:55:52;11.20;58.60
49222;DHT22;35047;37.588;-122.048;2023-02-01T13:00:59;11.20;58.60
49222;DHT22;35047;37.588;-122.048;2023-02-01T13:06:50;11.20;58.40
49222;DHT22;35047;37.588;-122.048;2023-02-01T13:09:24;11.30;58.60
49222;DHT22;35047;37.588;-122.048;2023-02-01T13:11:57;11.30;58.40
49222;DHT22;35047;37.588;-122.048;2023-02-01T13:15:00;11.20;58.30
49222;DHT22;35047;37.588;-122.048;2023-02-01T13:17:30;11.30;58.20
49222;DHT22;35047;37.588;-122.048;2023-02-01T13:20:15;11.20;58.20
49222;DHT22;35047;37.588;-122.048;2023-02-01T13:22:54;11.00;58.30
49222;DHT22;35047;37.588;-122.048;2023-02-01T13:28:12;11.10;58.60
49222;DHT22;35047;37.588;-122.048;2023-02-01T13:39:27;11.10;58.50
49222;DHT22;35047;37.588;-122.048;2023-02-01T13:42:00;11.10;58.70
49222;DHT22;35047;37.588;-122.048;2023-02-01T13:44:34;11.10;59.00
49222;DHT22;35047;37.588;-122.048;2023-02-01T13:47:13;11.10;59.20
49222;DHT22;35047;37.588;-122.048;2023-02-01T13:49:44;11.00;59.10
49222;DHT22;35047;37.588;-122.048;2023-02-01T13:52:37;11.10;59.20
49222;DHT22;35047;37.588;-122.048;2023-02-01T13:55:36;10.90;59.00
49222;DHT22;35047;37.588;-122.048;2023-02-01T14:00:41;11.00;60.00
49222;DHT22;35047;37.588;-122.048;2023-02-01T14:03:17;11.00;59.40
49222;DHT22;35047;37.588;-122.048;2023-02-01T14:08:13;11.00;59.40
49222;DHT22;35047;37.588;-122.048;2023-02-01T14:13:36;11.00;59.20
49222;DHT22;35047;37.588;-122.048;2023-02-01T14:21:15;10.70;60.10
49222;DHT22;35047;37.588;-122.048;2023-02-01T14:26:44;10.80;60.10
49222;DHT22;35047;37.588;-122.048;2023-02-01T14:32:19;10.70;60.20
49222;DHT22;35047;37.588;-122.048;2023-02-01T14:47:54;10.90;60.40
49222;DHT22;35047;37.588;-122.048;2023-02-01T14:58:28;10.60;60.50
49222;DHT22;35047;37.588;-122.048;2023-02-01T15:00:58;10.40;61.00
49222;DHT22;35047;37.588;-122.048;2023-02-01T15:04:26;10.50;61.70
49222;DHT22;35047;37.588;-122.048;2023-02-01T15:09:11;10.60;63.60
49222;DHT22;35047;37.588;-122.048;2023-02-01T15:12:04;10.50;63.40
49222;DHT22;35047;37.588;-122.048;2023-02-01T15:14:36;10.50;63.40
49222;DHT22;35047;37.588;-122.048;2023-02-01T15:17:15;10.50;63.70
49222;DHT22;35047;37.588;-122.048;2023-02-01T15:19:56;10.60;63.40
49222;DHT22;35047;37.588;-122.048;2023-02-01T15:22:23;10.60;63.10
49222;DHT22;35047;37.588;-122.048;2023-02-01T15:24:56;10.60;63.20
49222;DHT22;35047;37.588;-122.048;2023-02-01T15:27:24;10.60;63.10
49222;DHT22;35047;37.588;-122.048;2023-02-01T15:29:52;10.60;63.00
49222;DHT22;35047;37.588;-122.048;2023-02-01T15:32:35;10.60;63.00
49222;DHT22;35047;37.588;-122.048;2023-02-01T15:35:05;10.50;63.10
49222;DHT22;35047;37.588;-122.048;2023-02-01T15:37:32;10.60;63.10
49222;DHT22;35047;37.588;-122.048;2023-02-01T15:42:58;10.60;62.90
49222;DHT22;35047;37.588;-122.048;2023-02-01T15:45:28;10.50;62.80
49222;DHT22;35047;37.588;-122.048;2023-02-01T15:47:57;10.60;63.10
49222;DHT22;35047;37.588;-122.048;2023-02-01T15:50:32;10.60;63.40
49222;DHT22;35047;37.588;-122.048;2023-02-01T15:53:00;10.60;63.30
49222;DHT22;35047;37.588;-122.048;2023-02-01T15:55:38;10.60;63.10
49222;DHT22;35047;37.588;-122.048;2023-02-01T15:58:07;10.70;63.00
49222;DHT22;35047;37.588;-122.048;2023-02-01T16:00:56;10.80;63.10
49222;DHT22;35047;37.588;-122.048;2023-02-01T16:08:54;10.90;62.60
49222;DHT22;35047;37.588;-122.048;2023-02-01T16:11:27;11.10;62.70
49222;DHT22;35047;37.588;-122.048;2023-02-01T16:14:00;11.10;62.70
49222;DHT22;35047;37.588;-122.048;2023-02-01T16:16:28;11.10;62.60
49222;DHT22;35047;37.588;-122.048;2023-02-01T16:18:55;11.10;62.40
49222;DHT22;35047;37.588;-122.048;2023-02-01T16:21:22;11.10;62.50
49222;DHT22;35047;37.588;-122.048;2023-02-01T16:23:53;11.20;62.50
49222;DHT22;35047;37.588;-122.048;2023-02-01T16:26:20;11.40;62.50
49222;DHT22;35047;37.588;-122.048;2023-02-01T16:28:48;11.50;62.30
49222;DHT22;35047;37.588;-122.048;2023-02-01T16:31:17;11.60;62.00
49222;DHT22;35047;37.588;-122.048;2023-02-01T16:33:51;11.70;61.80
49222;DHT22;35047;37.588;-122.048;2023-02-01T16:36:19;11.80;61.60
49222;DHT22;35047;37.588;-122.048;2023-02-01T16:38:47;11.90;61.40
49222;DHT22;35047;37.588;-122.048;2023-02-01T16:41:16;12.00;61.80
49222;DHT22;35047;37.588;-122.048;2023-02-01T16:43:44;12.10;61.50
49222;DHT22;35047;37.588;-122.048;2023-02-01T16:46:16;12.20;60.60
49222;DHT22;35047;37.588;-122.048;2023-02-01T16:48:54;12.30;59.80
49222;DHT22;35047;37.588;-122.048;2023-02-01T16:51:22;12.40;59.30
49222;DHT22;35047;37.588;-122.048;2023-02-01T16:53:52;12.60;59.30
49222;DHT22;35047;37.588;-122.048;2023-02-01T16:56:30;12.60;59.50
49222;DHT22;35047;37.588;-122.048;2023-02-01T16:58:59;12.80;59.50
49222;DHT22;35047;37.588;-122.048;2023-02-01T17:01:26;13.00;59.20
49222;DHT22;35047;37.588;-122.048;2023-02-01T17:03:52;13.20;58.50
49222;DHT22;35047;37.588;-122.048;2023-02-01T17:06:22;13.30;58.40
49222;DHT22;35047;37.588;-122.048;2023-02-01T17:08:56;13.60;58.00
49222;DHT22;35047;37.588;-122.048;2023-02-01T17:11:25;13.90;57.30
49222;DHT22;35047;37.588;-122.048;2023-02-01T17:13:53;14.10;56.30
49222;DHT22;35047;37.588;-122.048;2023-02-01T17:16:25;14.40;55.60
49222;DHT22;35047;37.588;-122.048;2023-02-01T17:19:04;14.80;55.20
49222;DHT22;35047;37.588;-122.048;2023-02-01T17:21:43;14.70;55.30
49222;DHT22;35047;37.588;-122.048;2023-02-01T17:24:16;14.90;53.90
49222;DHT22;35047;37.588;-122.048;2023-02-01T17:26:44;15.10;53.00
49222;DHT22;35047;37.588;-122.048;2023-02-01T17:29:12;15.50;52.50
49222;DHT22;35047;37.588;-122.048;2023-02-01T17:31:42;15.70;51.60
49222;DHT22;35047;37.588;-122.048;2023-02-01T17:34:11;15.90;50.50
49222;DHT22;35047;37.588;-122.048;2023-02-01T17:36:37;15.60;49.40
49222;DHT22;35047;37.588;-122.048;2023-02-01T17:39:11;16.00;50.90
49222;DHT22;35047;37.588;-122.048;2023-02-01T17:42:03;16.40;51.00
49222;DHT22;35047;37.588;-122.048;2023-02-01T17:44:30;16.20;48.00
49222;DHT22;35047;37.588;-122.048;2023-02-01T17:46:57;15.80;48.20
49222;DHT22;35047;37.588;-122.048;2023-02-01T17:49:25;16.00;50.80
49222;DHT22;35047;37.588;-122.048;2023-02-01T17:51:56;16.30;50.70
49222;DHT22;35047;37.588;-122.048;2023-02-01T17:54:22;16.40;47.40
49222;DHT22;35047;37.588;-122.048;2023-02-01T17:56:51;16.90;49.00
49222;DHT22;35047;37.588;-122.048;2023-02-01T17:59:17;17.30;49.30
49222;DHT22;35047;37.588;-122.048;2023-02-01T18:01:44;17.40;48.10
49222;DHT22;35047;37.588;-122.048;2023-02-01T18:04:18;17.30;46.70
49222;DHT22;35047;37.588;-122.048;2023-02-01T18:06:45;17.70;47.20
49222;DHT22;35047;37.588;-122.048;2023-02-01T18:09:12;17.60;45.70